createdAt,value
2019-03-04T00:14:44.289Z,4.46
2019-03-04T00:30:17.342Z,4.51
2019-03-04T00:45:50.478Z,4.55
2019-03-04T01:01:23.235Z,3.86
2019-03-04T01:16:56.466Z,2.30
2019-03-04T01:32:29.866Z,1.67
2019-03-04T01:48:03.110Z,1.01
2019-03-04T02:03:36.420Z,1.03
2019-03-04T02:19:09.602Z,0.71
2019-03-04T02:34:42.924Z,0.70
2019-03-04T02:50:16.416Z,0.41
2019-03-04T03:05:49.382Z,0.23
2019-03-04T03:21:22.523Z,0.33
2019-03-04T03:36:55.738Z,-0.14
2019-03-04T03:52:28.885Z,-0.52
2019-03-04T04:08:01.992Z,-0.40
2019-03-04T04:23:35.187Z,-0.22
2019-03-04T04:39:08.287Z,0.22
2019-03-04T04:54:41.342Z,0.13
2019-03-04T05:10:14.585Z,0.15
2019-03-04T05:25:47.677Z,2.09
2019-03-04T05:41:20.548Z,4.50
2019-03-04T05:56:53.728Z,7.30
2019-03-04T06:12:27.027Z,10.38
2019-03-04T06:28:00.234Z,12.38
2019-03-04T06:43:33.509Z,14.89
2019-03-04T06:59:19.527Z,14.50
2019-03-04T07:14:52.345Z,14.62
2019-03-04T07:30:27.560Z,14.63
2019-03-04T07:46:00.380Z,15.08
2019-03-04T08:01:33.722Z,14.30
2019-03-04T08:17:06.657Z,17.54
2019-03-04T08:32:40.073Z,17.00
2019-03-04T08:48:13.179Z,17.15
2019-03-04T09:03:46.349Z,17.03
2019-03-04T09:19:19.361Z,20.06
2019-03-04T09:34:52.144Z,17.04
2019-03-04T09:50:30.192Z,18.26
2019-03-04T10:06:10.494Z,17.06
2019-03-04T10:21:56.717Z,19.83
2019-03-04T10:53:40.457Z,21.38
2019-03-04T11:09:13.481Z,21.48
2019-03-04T11:24:46.323Z,21.36
2019-03-04T11:40:22.529Z,20.77
2019-03-04T11:55:55.433Z,19.48
2019-03-04T12:11:37.779Z,19.83
2019-03-04T12:27:03.657Z,19.78
2019-03-04T12:42:37.035Z,19.05
2019-03-04T12:58:10.108Z,19.13
2019-03-04T13:13:43.094Z,18.60
2019-03-04T13:29:16.144Z,16.81
2019-03-04T13:44:48.997Z,17.13
2019-03-04T14:00:25.167Z,16.37
2019-03-04T14:16:02.104Z,15.79
2019-03-04T14:31:35.198Z,15.53
2019-03-04T14:47:08.177Z,15.09
2019-03-04T15:02:41.228Z,14.42
2019-03-04T15:18:14.471Z,13.70
2019-03-04T15:33:47.670Z,13.02
2019-03-04T15:49:20.887Z,12.55
2019-03-04T16:04:53.906Z,12.16
2019-03-04T16:20:29.912Z,11.90
2019-03-04T16:36:02.896Z,11.55
2019-03-04T16:51:36.346Z,11.69
2019-03-04T17:07:09.391Z,11.58
2019-03-04T17:22:42.373Z,11.52
2019-03-04T17:38:15.513Z,11.15
2019-03-04T17:53:48.554Z,11.46
2019-03-04T18:09:21.509Z,11.45
2019-03-04T18:24:54.674Z,11.45
2019-03-04T18:40:37.958Z,11.57
2019-03-04T18:56:11.169Z,11.63
2019-03-04T19:11:44.091Z,10.09
2019-03-04T19:27:17.153Z,9.48
2019-03-04T19:42:50.232Z,8.29
2019-03-04T19:58:23.118Z,8.53
2019-03-04T20:13:57.329Z,7.65
2019-03-04T20:29:30.259Z,7.04
2019-03-04T20:45:03.277Z,7.10
2019-03-04T21:00:42.290Z,7.19
2019-03-04T21:16:15.461Z,6.89
2019-03-04T21:31:54.927Z,6.82
2019-03-04T21:47:38.037Z,5.59
2019-03-04T22:03:18.185Z,6.19
2019-03-04T22:18:51.163Z,7.21
2019-03-04T22:34:24.138Z,7.00
2019-03-04T22:49:57.582Z,6.87
2019-03-04T23:05:32.733Z,5.88
2019-03-04T23:21:06.588Z,6.15
2019-03-04T23:36:40.165Z,6.22
2019-03-04T23:52:15.073Z,5.90
